Time;durP1;ratioP1;P1;durP2;ratioP2;P2;SDS_P1;SDS_P2;PMS_P1;PMS_P2;Temp;Humidity;BMP_temperature;BMP_pressure;BME280_temperature;BME280_humidity;BME280_pressure;Samples;Min_cycle;Max_cycle;Signal;HPM_P1;HPM_P2
2023/08/30 00:01:13;;;;;;;1.07;1.07;;;16.90;99.90;;;17.24;84.91;99962.53;4965528;28;20744;-65
2023/08/30 00:03:40;;;;;;;1.30;1.20;;;16.90;99.90;;;17.23;84.93;99958.25;4970235;28;20626;-65
2023/08/30 00:06:07;;;;;;;1.23;1.23;;;16.90;99.90;;;17.26;84.82;99960.53;4968254;28;20674;-65
2023/08/30 00:08:35;;;;;;;1.40;1.40;;;16.90;99.90;;;17.23;84.91;99968.81;4968828;28;20802;-65
2023/08/30 00:11:04;;;;;;;1.83;1.73;;;16.90;99.90;;;17.26;84.51;99952.63;4968316;28;20631;-65
2023/08/30 00:13:35;;;;;;;1.50;1.40;;;16.90;99.90;;;17.27;84.90;99965.63;4964965;28;20682;-65
2023/08/30 00:16:02;;;;;;;3.00;1.80;;;16.90;99.90;;;17.30;84.61;99951.28;4969031;28;20631;-65
2023/08/30 00:18:30;;;;;;;1.60;1.50;;;17.00;99.90;;;17.34;84.79;99949.97;4968043;28;20630;-65
2023/08/30 00:20:58;;;;;;;1.67;1.57;;;17.00;99.90;;;17.39;84.53;99951.13;4968384;28;20635;-65
2023/08/30 00:23:25;;;;;;;1.30;1.30;;;17.00;99.90;;;17.42;84.56;99948.13;4967880;28;21243;-65
2023/08/30 00:25:52;;;;;;;1.73;1.50;;;17.10;99.90;;;17.45;84.32;99954.88;4967514;28;20631;-65
2023/08/30 00:28:19;;;;;;;1.90;1.40;;;17.10;99.90;;;17.46;84.18;99961.81;4957445;28;20685;-64
2023/08/30 00:30:46;;;;;;;1.33;1.27;;;17.10;99.90;;;17.49;84.29;99953.53;4964390;28;20741;-64
2023/08/30 00:33:13;;;;;;;1.20;1.20;;;17.10;99.90;;;17.49;84.26;99956.19;4962184;28;21192;-64
2023/08/30 00:35:40;;;;;;;1.50;1.50;;;17.10;99.90;;;17.48;84.43;99955.34;4963470;28;20689;-64
2023/08/30 00:38:07;;;;;;;1.30;1.30;;;17.10;99.90;;;17.49;83.96;99953.53;4960749;28;20688;-64
2023/08/30 00:40:40;;;;;;;1.00;1.00;;;17.10;99.90;;;17.46;84.15;99954.69;4963459;28;20647;-64
2023/08/30 00:43:08;;;;;;;1.67;1.50;;;17.10;99.90;;;17.43;84.40;99951.59;4966823;28;20704;-64
2023/08/30 00:45:38;;;;;;;1.40;1.30;;;17.10;99.90;;;17.37;84.50;99947.00;4968695;28;21196;-64
2023/08/30 00:48:05;;;;;;;1.30;1.20;;;17.10;99.90;;;17.37;85.29;99949.63;4964785;28;20723;-64
2023/08/30 00:50:34;;;;;;;1.70;1.47;;;17.00;99.90;;;17.36;85.55;99948.81;4998114;28;20634;-64
2023/08/30 00:53:05;;;;;;;1.70;1.60;;;17.00;99.90;;;17.34;85.63;99948.16;4967764;28;21027;-65
2023/08/30 00:55:37;;;;;;;1.60;1.50;;;17.00;99.90;;;17.34;85.64;99942.06;4966597;28;21275;-64
2023/08/30 00:58:05;;;;;;;4.23;1.60;;;17.00;99.90;;;17.34;85.75;99942.88;4969063;28;21196;-64
2023/08/30 01:00:33;;;;;;;1.20;1.20;;;17.00;99.90;;;17.30;85.73;99940.75;4963859;28;20640;-64
2023/08/30 01:03:00;;;;;;;1.50;1.40;;;17.00;99.90;;;17.28;86.24;99937.47;4968208;28;20763;-64
2023/08/30 01:05:28;;;;;;;2.70;1.40;;;16.90;99.90;;;17.26;86.49;99936.81;4982670;28;20704;-64
2023/08/30 01:07:55;;;;;;;1.53;1.43;;;16.90;99.90;;;17.23;86.77;99937.97;4965232;28;21256;-64
2023/08/30 01:10:31;;;;;;;1.60;1.50;;;16.90;99.90;;;17.23;86.34;99937.16;4968994;28;21216;-64
2023/08/30 01:13:09;;;;;;;1.07;1.07;;;16.90;99.90;;;17.20;87.03;99933.06;4963200;28;20690;-64
2023/08/30 01:15:38;;;;;;;1.33;1.30;;;16.90;99.90;;;17.18;86.75;99931.56;4966508;28;20770;-64
2023/08/30 01:18:06;;;;;;;1.30;1.20;;;16.80;99.90;;;17.16;87.34;99928.28;4962186;28;20635;-64
2023/08/30 01:20:38;;;;;;;1.03;1.03;;;16.80;99.90;;;17.16;87.23;99923.00;4964242;28;20639;-64
2023/08/30 01:23:29;;;;;;;1.03;1.03;;;16.80;99.90;;;17.16;87.87;99923.00;4956104;28;20662;-64
2023/08/30 01:26:26;;;;;;;1.53;1.20;;;16.80;99.90;;;17.18;87.44;99918.41;4966430;28;20643;-64
2023/08/30 01:28:56;;;;;;;1.43;1.33;;;16.80;99.90;;;17.15;87.49;99916.09;4967296;28;20631;-64
2023/08/30 01:31:27;;;;;;;1.40;1.30;;;16.80;99.90;;;17.14;87.83;99915.28;4964209;28;20716;-63
2023/08/30 01:33:55;;;;;;;1.37;1.33;;;16.80;99.90;;;17.08;87.84;99914.13;4996521;28;20690;-64
2023/08/30 01:36:23;;;;;;;1.03;1.03;;;16.80;99.90;;;17.08;88.40;99904.59;4967003;28;20999;-64
2023/08/30 01:38:51;;;;;;;1.87;1.27;;;16.70;99.90;;;17.08;88.40;99908.03;4963657;28;20644;-64
2023/08/30 01:41:19;;;;;;;1.67;1.57;;;16.80;99.90;;;17.06;88.69;99900.28;4967299;28;20638;-64
2023/08/30 01:43:48;;;;;;;1.20;1.20;;;16.70;99.90;;;17.06;89.08;99905.56;4964829;28;20742;-64
2023/08/30 01:46:19;;;;;;;1.37;1.27;;;16.70;99.90;;;17.06;88.88;99904.75;4967780;28;20645;-64
2023/08/30 01:48:48;;;;;;;1.60;1.50;;;16.70;99.90;;;17.05;89.02;99898.66;4963055;28;20641;-64
2023/08/30 01:51:16;;;;;;;1.20;1.20;;;16.70;99.90;;;17.04;89.19;99899.66;4967428;28;20666;-64
2023/08/30 01:53:46;;;;;;;1.27;1.27;;;16.70;99.90;;;17.05;89.17;99893.41;4964849;28;20755;-64
2023/08/30 01:56:13;;;;;;;1.20;1.20;;;16.70;99.90;;;17.07;89.07;99898.50;4967028;28;20722;-64
2023/08/30 01:58:39;;;;;;;1.50;1.40;;;16.80;99.90;;;17.05;89.00;99896.03;4965917;28;20754;-63
2023/08/30 02:01:08;;;;;;;1.70;1.30;;;16.70;99.90;;;17.04;89.17;99894.38;4965472;28;21283;-64
2023/08/30 02:03:35;;;;;;;1.00;1.00;;;16.70;99.90;;;17.01;89.36;99897.34;4965274;28;20708;-64
2023/08/30 02:06:14;;;;;;;1.50;1.40;;;16.70;99.90;;;17.04;89.37;99902.28;4967612;28;20645;-64
2023/08/30 02:08:56;;;;;;;1.17;1.17;;;16.70;99.90;;;17.02;89.60;99898.16;4964382;28;20700;-64
2023/08/30 02:11:29;;;;;;;1.37;1.27;;;16.70;99.90;;;16.96;89.44;99894.41;4968089;28;20689;-64
2023/08/30 02:13:59;;;;;;;1.47;1.37;;;16.60;99.90;;;16.96;89.86;99891.78;4963002;28;21319;-65
2023/08/30 02:16:27;;;;;;;1.47;1.37;;;16.60;99.90;;;16.97;89.98;99896.03;4966607;28;21044;-64
2023/08/30 02:18:55;;;;;;;1.50;1.50;;;16.60;99.90;;;16.99;90.05;99893.25;4964540;28;20635;-64
2023/08/30 02:21:22;;;;;;;1.27;1.17;;;16.70;99.90;;;16.96;90.31;99889.13;4967101;28;20629;-64
2023/08/30 02:23:50;;;;;;;1.57;1.47;;;16.60;99.90;;;16.96;90.56;99894.41;4962744;28;20725;-64
2023/08/30 02:26:19;;;;;;;1.83;1.63;;;16.60;99.90;;;16.98;90.48;99900.31;4967882;28;20993;-64
2023/08/30 02:28:47;;;;;;;1.47;1.43;;;16.70;99.90;;;16.96;90.29;99899.69;4965874;28;20647;-65
2023/08/30 02:31:13;;;;;;;1.40;1.30;;;16.60;99.90;;;16.96;90.80;99902.31;4964993;28;20631;-64
2023/08/30 02:33:40;;;;;;;1.47;1.20;;;16.60;99.90;;;16.93;90.61;99900.00;4965413;28;20646;-64
2023/08/30 02:36:08;;;;;;;1.20;1.20;;;16.60;99.90;;;16.92;90.87;99908.09;4966705;28;20624;-64
2023/08/30 02:38:35;;;;;;;1.57;1.47;;;16.60;99.90;;;16.93;90.77;99910.53;4964906;28;20663;-64
2023/08/30 02:41:01;;;;;;;1.50;1.40;;;16.60;99.90;;;16.93;90.95;99910.53;4967923;28;21187;-65
2023/08/30 02:43:28;;;;;;;1.73;1.67;;;16.60;99.90;;;16.97;91.02;99896.03;4965507;28;20651;-64
2023/08/30 02:45:56;;;;;;;1.50;1.40;;;16.60;99.90;;;17.00;90.80;99906.25;4967991;28;20667;-64
2023/08/30 02:48:23;;;;;;;3.13;1.40;;;16.70;99.90;;;17.00;90.74;99908.88;4966897;28;20650;-64
2023/08/30 02:50:50;;;;;;;1.73;1.63;;;16.70;99.90;;;17.02;90.46;99906.06;4965481;28;20701;-65
2023/08/30 02:53:17;;;;;;;1.67;1.57;;;16.70;99.90;;;16.98;90.72;99908.22;4962663;28;20697;-63
2023/08/30 02:55:43;;;;;;;1.63;1.53;;;16.60;99.90;;;17.00;91.08;99906.25;4965402;28;20663;-64
2023/08/30 02:58:10;;;;;;;1.60;1.50;;;16.70;99.90;;;17.01;90.93;99897.34;4965402;28;20681;-64
2023/08/30 03:00:38;;;;;;;1.97;1.87;;;16.70;99.90;;;16.98;91.22;99902.97;4965952;28;20738;-64
2023/08/30 03:03:05;;;;;;;1.67;1.57;;;16.70;99.90;;;16.94;91.47;99899.03;4965458;28;21205;-63
2023/08/30 03:05:32;;;;;;;1.80;1.70;;;16.60;99.90;;;16.92;91.75;99903.63;4962716;28;20650;-64
2023/08/30 03:07:59;;;;;;;3.10;1.70;;;16.60;99.90;;;16.92;91.98;99911.53;4965642;28;20742;-64
2023/08/30 03:10:26;;;;;;;1.90;1.77;;;16.60;99.90;;;16.93;92.03;99900.00;4965888;28;21294;-64
2023/08/30 03:12:52;;;;;;;1.63;1.57;;;16.60;99.90;;;16.92;92.45;99900.19;4965461;28;22895;-64
2023/08/30 03:15:19;;;;;;;1.53;1.53;;;16.60;99.90;;;16.93;92.41;99907.06;4965404;28;20682;-63
2023/08/30 03:17:46;;;;;;;1.50;1.50;;;16.60;99.90;;;16.92;92.31;99911.53;4966366;28;20749;-64
2023/08/30 03:20:13;;;;;;;2.00;1.90;;;16.60;99.90;;;16.96;92.49;99906.75;4963189;28;20639;-64
2023/08/30 03:22:40;;;;;;;1.70;1.60;;;16.60;99.90;;;16.97;92.34;99903.94;4963620;28;20665;-64
2023/08/30 03:25:09;;;;;;;1.80;1.70;;;16.60;99.90;;;16.98;92.71;99902.13;4967158;28;20647;-64
2023/08/30 03:27:36;;;;;;;1.63;1.60;;;16.70;99.90;;;16.97;92.60;99906.56;4964998;28;20643;-64
2023/08/30 03:30:04;;;;;;;1.57;1.57;;;16.70;99.90;;;16.95;92.84;99902.50;4967682;28;20660;-64
2023/08/30 03:32:32;;;;;;;2.10;1.83;;;16.60;99.90;;;16.96;93.11;99912.84;4965569;28;20677;-64
2023/08/30 03:34:59;;;;;;;1.80;1.70;;;16.60;99.90;;;16.96;93.06;99904.13;4965121;28;21044;-64
2023/08/30 03:37:26;;;;;;;1.73;1.63;;;16.60;99.90;;;16.94;92.87;99908.72;4964309;28;20639;-64
2023/08/30 03:39:53;;;;;;;1.77;1.67;;;16.60;99.90;;;16.94;93.17;99904.28;4963426;28;21031;-65
2023/08/30 03:42:20;;;;;;;2.03;1.93;;;16.60;99.90;;;16.90;93.25;99910.06;4967271;28;20739;-64
2023/08/30 03:44:47;;;;;;;1.93;1.83;;;16.60;99.90;;;16.90;93.24;99904.78;4968672;28;20678;-65
2023/08/30 03:47:13;;;;;;;2.13;2.03;;;16.60;99.90;;;16.89;93.07;99914.50;4969932;28;21078;-64
2023/08/30 03:49:40;;;;;;;2.53;1.90;;;16.60;99.90;;;16.88;93.46;99904.97;4966442;28;20649;-64
2023/08/30 03:52:07;;;;;;;2.10;1.97;;;16.50;99.90;;;16.87;93.36;99900.69;4969877;28;21098;-64
2023/08/30 03:54:34;;;;;;;2.13;1.97;;;16.50;99.90;;;16.85;93.48;99902.66;4968427;28;20677;-64
2023/08/30 03:57:01;;;;;;;1.93;1.83;;;16.50;99.90;;;16.84;94.16;99902.84;4969783;28;20631;-65
2023/08/30 03:59:28;;;;;;;2.00;1.90;;;16.50;99.90;;;16.82;93.40;99899.53;4967990;28;21019;-63
2023/08/30 04:01:55;;;;;;;2.20;2.03;;;16.50;99.90;;;16.79;93.85;99903.34;4968629;28;20725;-64
2023/08/30 04:04:22;;;;;;;2.07;1.97;;;16.50;99.90;;;16.78;94.21;99903.50;4966728;28;20729;-64
2023/08/30 04:06:49;;;;;;;2.73;2.13;;;16.50;99.90;;;16.76;93.95;99910.75;4969199;28;21051;-64
2023/08/30 04:09:16;;;;;;;2.60;1.97;;;16.40;99.90;;;16.75;94.47;99906.47;4968136;28;20649;-63
2023/08/30 04:11:44;;;;;;;2.83;2.63;;;16.50;99.90;;;16.75;94.24;99909.09;4969091;28;20639;-64
2023/08/30 04:14:11;;;;;;;2.10;2.00;;;16.40;99.90;;;16.72;94.38;99910.25;4967290;28;20639;-64
2023/08/30 04:16:38;;;;;;;2.00;1.90;;;16.40;99.90;;;16.69;94.45;99910.59;4968784;28;21191;-64
2023/08/30 04:19:05;;;;;;;2.37;2.20;;;16.40;99.90;;;16.68;94.54;99903.66;4958995;28;20724;-64
2023/08/30 04:21:32;;;;;;;2.67;2.30;;;16.40;99.90;;;16.63;94.89;99903.34;4966831;28;20681;-64
2023/08/30 04:23:59;;;;;;;2.77;2.27;;;16.30;99.90;;;16.59;95.61;99894.13;4968921;28;20620;-65
2023/08/30 04:26:26;;;;;;;2.57;2.17;;;16.30;99.90;;;16.56;95.29;99901.56;4967402;28;20643;-64
2023/08/30 04:28:53;;;;;;;2.10;2.00;;;16.20;99.90;;;16.53;96.21;99900.06;4965687;28;20716;-63
2023/08/30 04:31:20;;;;;;;2.13;2.03;;;16.20;99.90;;;16.53;96.28;99897.44;4965106;28;21295;-64
2023/08/30 04:33:47;;;;;;;2.30;2.10;;;16.20;99.90;;;16.55;96.24;99900.72;4969343;28;20713;-64
2023/08/30 04:36:13;;;;;;;2.50;2.30;;;16.20;99.90;;;16.57;96.73;99903.22;4962991;28;20686;-64
2023/08/30 04:38:40;;;;;;;2.43;2.30;;;16.30;99.90;;;16.56;96.24;99901.56;4967532;28;20623;-64
2023/08/30 04:41:22;;;;;;;2.20;2.10;;;16.20;99.90;;;16.54;96.41;99901.72;4974909;28;20697;-64
2023/08/30 04:43:49;;;;;;;2.00;1.90;;;16.20;99.90;;;16.52;96.99;99906.34;4969003;28;21472;-64
2023/08/30 04:46:16;;;;;;;2.13;2.03;;;16.20;99.90;;;16.49;96.86;99903.97;4974636;28;20643;-64
2023/08/30 04:48:43;;;;;;;3.87;2.40;;;16.20;99.90;;;16.47;97.03;99902.50;4968865;28;20642;-64
2023/08/30 04:51:10;;;;;;;2.40;2.30;;;16.20;99.90;;;16.47;96.88;99897.22;4966225;28;20738;-64
2023/08/30 04:53:37;;;;;;;2.83;2.60;;;16.20;99.90;;;16.46;97.41;99890.34;4968986;28;21141;-64
2023/08/30 04:56:14;;;;;;;3.30;2.57;;;16.10;99.90;;;16.46;97.59;99896.41;4965241;28;20725;-64
2023/08/30 04:58:41;;;;;;;2.23;2.03;;;16.20;99.90;;;16.48;97.50;99894.47;4968626;28;20623;-64
2023/08/30 05:01:08;;;;;;;2.27;2.07;;;16.10;99.90;;;16.46;97.92;99879.81;4965085;28;20675;-64
2023/08/30 05:03:35;;;;;;;2.40;2.20;;;16.20;99.90;;;16.45;97.55;99886.88;4969524;28;20646;-64
2023/08/30 05:06:02;;;;;;;2.07;1.97;;;16.10;99.90;;;16.48;97.89;99893.63;4964363;28;20674;-64
2023/08/30 05:08:29;;;;;;;2.40;2.20;;;16.20;99.90;;;16.51;97.85;99891.50;4968869;28;20639;-63
2023/08/30 05:10:56;;;;;;;2.63;2.23;;;16.20;99.90;;;16.52;97.31;99892.34;4966847;28;20689;-63
2023/08/30 05:13:23;;;;;;;2.27;2.10;;;16.20;99.90;;;16.49;97.42;99893.44;4963908;28;20662;-64
2023/08/30 05:15:50;;;;;;;2.50;2.30;;;16.20;99.90;;;16.55;97.65;99892.00;4983110;28;20670;-64
2023/08/30 05:18:19;;;;;;;2.23;2.07;;;16.20;99.90;;;16.58;97.60;99887.22;4967222;28;20627;-63
2023/08/30 05:20:46;;;;;;;2.40;2.27;;;16.20;99.90;;;16.57;97.23;99893.47;4966546;28;20654;-64
2023/08/30 05:23:13;;;;;;;3.23;2.50;;;16.20;99.90;;;16.63;97.08;99895.44;4987342;28;21243;-64
2023/08/30 05:25:40;;;;;;;2.17;2.00;;;16.30;99.90;;;16.63;97.02;99892.81;4967182;28;20630;-64
2023/08/30 05:28:07;;;;;;;2.67;2.47;;;16.30;99.90;;;16.68;96.20;99898.41;4965717;28;20646;-64
2023/08/30 05:30:35;;;;;;;2.77;2.40;;;16.30;99.90;;;16.73;95.70;99887.38;4966402;28;21278;-64
2023/08/30 05:33:02;;;;;;;3.00;2.70;;;16.40;99.90;;;16.72;96.00;99886.53;4959860;28;20754;-64
2023/08/30 05:35:29;;;;;;;2.97;2.73;;;16.40;99.90;;;16.69;96.44;99886.06;4966591;28;20667;-64
2023/08/30 05:37:56;;;;;;;2.73;2.43;;;16.40;99.90;;;16.72;95.94;99893.63;4964779;28;20655;-64
2023/08/30 05:40:24;;;;;;;2.83;2.50;;;16.40;99.90;;;16.74;96.05;99896.91;4967220;28;21048;-64
2023/08/30 05:42:51;;;;;;;2.87;2.57;;;16.40;99.90;;;16.70;95.96;99893.78;4960327;28;20750;-63
2023/08/30 05:45:20;;;;;;;2.87;2.57;;;16.40;99.90;;;16.70;96.06;99895.59;4963489;28;20654;-64
2023/08/30 05:47:48;;;;;;;2.53;2.37;;;16.40;99.90;;;16.74;95.79;99897.72;4973258;28;20670;-64
2023/08/30 05:50:15;;;;;;;2.57;2.37;;;16.40;99.90;;;16.82;95.45;99899.53;4963594;28;21163;-64
2023/08/30 05:52:44;;;;;;;2.90;2.53;;;16.50;99.90;;;16.98;95.62;99887.16;4965667;28;20695;-64
2023/08/30 05:55:11;;;;;;;2.37;2.20;;;16.60;99.90;;;17.11;94.25;99893.69;4967218;28;20709;-64
2023/08/30 05:57:38;;;;;;;2.40;2.27;;;16.80;99.90;;;17.21;93.30;99903.06;4965963;28;20697;-64
2023/08/30 06:00:07;;;;;;;3.17;2.87;;;16.90;99.90;;;17.29;92.64;99902.22;4966384;28;20639;-64
2023/08/30 06:02:35;;;;;;;3.87;3.27;;;17.00;99.90;;;17.34;91.61;99905.97;4960253;28;20675;-64
2023/08/30 06:05:02;;;;;;;4.57;2.97;;;17.00;99.90;;;17.38;91.08;99899.34;4968463;28;20758;-64
2023/08/30 06:07:29;;;;;;;3.13;2.83;;;17.10;99.90;;;17.39;90.73;99901.00;4967876;28;20623;-64
2023/08/30 06:09:56;;;;;;;2.27;2.10;;;17.10;99.90;;;17.45;90.35;99907.41;4967384;28;20643;-64
2023/08/30 06:12:25;;;;;;;3.10;2.90;;;17.10;99.90;;;17.53;90.22;99895.03;4967929;28;20758;-64
2023/08/30 06:14:53;;;;;;;3.73;3.30;;;17.20;99.90;;;17.69;89.52;99891.50;4965527;28;20678;-64
2023/08/30 06:17:20;;;;;;;4.20;2.80;;;17.30;99.90;;;17.95;88.24;99892.00;4958021;28;20733;-64
2023/08/30 06:19:48;;;;;;;3.30;3.00;;;17.50;99.90;;;18.18;86.75;99898.13;4967565;28;20745;-64
2023/08/30 06:22:15;;;;;;;2.67;2.47;;;17.70;99.90;;;18.52;85.38;99897.69;4962231;28;20694;-64
2023/08/30 06:24:42;;;;;;;2.60;2.37;;;18.10;99.90;;;18.90;83.00;99904.59;4968516;28;20627;-65
2023/08/30 06:27:09;;;;;;;3.87;2.60;;;18.50;99.90;;;19.27;80.50;99909.00;4965404;28;20755;-65
2023/08/30 06:29:36;;;;;;;3.60;3.13;;;18.80;99.90;;;19.54;78.59;99911.00;4967554;28;20999;-64
2023/08/30 06:32:04;;;;;;;3.30;3.00;;;19.10;99.90;;;19.79;77.22;99909.66;4962516;28;20662;-64
2023/08/30 06:34:31;;;;;;;3.30;3.00;;;19.40;99.90;;;19.98;75.97;99906.41;4966868;28;20730;-65
2023/08/30 06:36:58;;;;;;;3.20;2.70;;;19.60;99.90;;;20.20;75.37;99901.13;4965113;28;21352;-64
2023/08/30 06:39:25;;;;;;;4.20;3.17;;;19.80;99.90;;;20.34;73.57;99902.91;4967251;28;20636;-64
2023/08/30 06:41:52;;;;;;;2.87;2.63;;;19.90;99.90;;;20.56;73.67;99899.22;4965378;28;20705;-64
2023/08/30 06:44:18;;;;;;;2.60;2.40;;;20.10;99.90;;;20.66;72.60;99902.34;4967120;28;20731;-64
2023/08/30 06:46:45;;;;;;;2.60;2.37;;;20.30;99.90;;;20.85;71.90;99901.69;4964584;28;20647;-65
2023/08/30 06:49:12;;;;;;;2.80;2.60;;;20.50;99.90;;;21.01;71.46;99904.03;4967164;28;20643;-65
2023/08/30 06:51:39;;;;;;;2.80;2.63;;;20.60;99.90;;;21.09;70.31;99906.56;4963257;28;21082;-64
2023/08/30 06:54:07;;;;;;;2.80;2.30;;;20.70;99.90;;;21.26;69.86;99913.19;4967045;28;21062;-64
2023/08/30 06:56:34;;;;;;;4.07;2.90;;;20.80;99.90;;;21.42;68.78;99909.41;4964191;28;20758;-64
2023/08/30 06:59:01;;;;;;;2.77;2.50;;;21.00;99.90;;;21.44;68.48;99902.06;4967113;28;20723;-65
2023/08/30 07:01:28;;;;;;;3.40;3.10;;;21.10;99.90;;;21.43;69.16;99903.06;4964139;28;21322;-64
2023/08/30 07:03:55;;;;;;;2.43;2.23;;;21.10;99.90;;;21.66;68.57;99902.75;4967044;28;20631;-65
2023/08/30 07:06:22;;;;;;;3.30;2.57;;;21.20;99.90;;;21.92;67.87;99905.50;4964221;28;20643;-63
2023/08/30 07:08:49;;;;;;;2.57;2.37;;;21.50;99.90;;;22.13;66.54;99900.88;4965306;28;20671;-64
2023/08/30 07:11:15;;;;;;;2.37;2.20;;;21.70;99.90;;;22.35;65.91;99893.53;4984699;28;20643;-64
2023/08/30 07:13:59;;;;;;;2.73;2.53;;;21.90;99.90;;;22.57;64.92;99887.00;4964027;28;20745;-64
2023/08/30 07:16:26;;;;;;;2.30;2.20;;;22.10;99.90;;;22.79;64.69;99885.78;4965169;28;20678;-64
2023/08/30 07:18:53;;;;;;;3.17;2.90;;;22.20;99.90;;;22.88;64.02;99879.22;4967613;28;20678;-64
2023/08/30 07:21:20;;;;;;;2.93;2.73;;;22.40;99.90;;;22.77;63.52;99877.19;4963909;28;20645;-64
2023/08/30 07:23:47;;;;;;;4.00;2.70;;;22.40;99.90;;;22.84;63.00;99871.84;4966932;28;20647;-63
2023/08/30 07:26:14;;;;;;;2.57;2.40;;;22.50;99.90;;;22.98;62.59;99863.63;4968407;28;20730;-64
2023/08/30 07:28:41;;;;;;;2.73;2.53;;;22.60;99.90;;;23.08;62.68;99864.00;4966358;28;20643;-64
2023/08/30 07:31:08;;;;;;;3.53;2.83;;;22.70;99.90;;;23.02;62.34;99870.16;4967884;28;20647;-63
2023/08/30 07:33:35;;;;;;;3.20;2.90;;;22.60;99.90;;;23.00;62.43;99864.25;4969996;28;20689;-64
2023/08/30 07:36:03;;;;;;;2.80;2.60;;;22.60;99.90;;;23.12;62.71;99869.75;4968614;28;20758;-64
2023/08/30 07:38:29;;;;;;;2.53;2.30;;;22.70;99.90;;;23.14;62.56;99879.16;4969601;28;20673;-64
2023/08/30 07:40:56;;;;;;;2.67;2.47;;;22.80;99.90;;;23.19;61.74;99883.03;4963567;28;20654;-64
2023/08/30 07:43:23;;;;;;;2.47;2.30;;;22.90;99.90;;;23.26;61.90;99881.16;4970468;28;21123;-64
2023/08/30 07:45:50;;;;;;;2.57;2.37;;;22.90;99.90;;;23.42;61.12;99878.91;4968318;28;20682;-64
2023/08/30 07:48:17;;;;;;;2.60;2.40;;;23.10;99.90;;;23.51;61.25;99876.81;4970160;28;20639;-64
2023/08/30 07:50:44;;;;;;;3.43;3.13;;;23.20;99.90;;;23.61;60.79;99877.97;4965741;28;20778;-63
2023/08/30 07:53:12;;;;;;;2.77;2.57;;;23.30;99.90;;;23.66;60.06;99880.81;4968912;28;20639;-64
2023/08/30 07:55:40;;;;;;;2.20;2.10;;;23.40;99.90;;;23.79;60.59;99883.41;4969023;28;20667;-63
2023/08/30 07:58:09;;;;;;;3.03;2.83;;;23.60;99.90;;;23.83;59.62;99889.13;4969181;28;20727;-64
2023/08/30 08:00:36;;;;;;;2.37;2.23;;;23.70;99.90;;;23.67;59.80;99887.78;4967226;28;20639;-64
2023/08/30 08:03:04;;;;;;;2.17;2.07;;;23.50;99.90;;;23.84;59.85;99883.59;4969967;28;21406;-64
2023/08/30 08:05:31;;;;;;;2.30;2.20;;;23.60;99.90;;;24.08;59.30;99898.03;4967472;28;21220;-64
2023/08/30 08:08:03;;;;;;;2.53;2.43;;;23.90;99.90;;;24.29;58.63;99895.03;4969704;28;20717;-64
2023/08/30 08:10:34;;;;;;;2.23;2.07;;;24.10;99.90;;;24.78;58.11;99888.06;4967679;28;20647;-64
2023/08/30 08:13:01;;;;;;;2.30;2.10;;;24.60;99.90;;;25.18;56.68;99892.78;4970271;28;21588;-64
2023/08/30 08:15:30;;;;;;;2.97;2.50;;;25.00;99.90;;;25.40;55.73;99895.81;4968205;28;20685;-64
2023/08/30 08:17:57;;;;;;;2.60;2.40;;;25.30;99.90;;;25.53;55.69;99903.72;4967490;28;20635;-63
2023/08/30 08:20:24;;;;;;;3.77;3.50;;;25.40;99.90;;;25.80;53.93;99899.66;4969941;28;20627;-65
2023/08/30 08:22:51;;;;;;;3.17;2.90;;;25.70;99.90;;;25.79;53.50;99903.34;4965906;28;21054;-64
2023/08/30 08:25:20;;;;;;;3.23;2.93;;;25.80;99.90;;;25.81;53.35;99895.91;4976249;28;20639;-65
2023/08/30 08:27:47;;;;;;;2.57;2.40;;;25.80;99.90;;;25.94;53.40;99906.44;4967441;28;20639;-64
2023/08/30 08:30:14;;;;;;;2.67;2.47;;;25.80;99.90;;;26.02;53.06;99907.97;4968484;28;20631;-64
2023/08/30 08:32:41;;;;;;;2.90;2.70;;;25.90;99.90;;;26.06;52.37;99904.63;4959828;28;20706;-64
2023/08/30 08:35:08;;;;;;;8.43;6.80;;;25.90;99.90;;;26.35;51.71;99902.97;4967184;28;20639;-66
2023/08/30 08:37:35;;;;;;;6.40;5.50;;;26.20;99.90;;;26.29;51.72;99906.56;4967200;28;20758;-66
2023/08/30 08:40:08;;;;;;;6.67;4.70;;;26.10;99.90;;;26.58;51.14;99905.69;4981285;28;21059;-68
2023/08/30 08:42:36;;;;;;;2.37;2.17;;;26.40;99.90;;;26.98;49.94;99899.69;4968554;28;20655;-68
2023/08/30 08:45:04;;;;;;;3.30;2.53;;;26.80;99.90;;;27.29;49.67;99900.09;4962541;28;20654;-67
2023/08/30 08:47:31;;;;;;;2.10;2.00;;;27.10;99.90;;;27.01;49.39;99905.38;4966492;28;20711;-67
2023/08/30 08:50:03;;;;;;;2.40;2.20;;;26.90;99.90;;;26.58;51.00;99904.84;4961733;28;20662;-67
2023/08/30 08:52:30;;;;;;;1.80;1.70;;;26.50;99.90;;;26.04;51.98;99900.56;4962888;28;20662;-67
2023/08/30 08:55:10;;;;;;;2.30;2.10;;;26.00;99.90;;;26.26;51.58;99900.88;4964183;28;20674;-67
2023/08/30 08:57:38;;;;;;;2.20;2.10;;;26.00;99.90;;;26.58;51.10;99896.84;4965150;28;20667;-68
2023/08/30 09:00:06;;;;;;;1.90;1.80;;;26.20;99.90;;;26.78;50.86;99897.34;4962041;28;20921;-68
2023/08/30 09:02:33;;;;;;;2.57;2.37;;;26.50;99.90;;;26.76;49.68;99904.81;4967619;28;20686;-68
2023/08/30 09:05:01;;;;;;;2.13;2.03;;;26.40;99.90;;;26.55;49.80;99902.66;4961351;28;21004;-68
2023/08/30 09:07:29;;;;;;;1.80;1.70;;;26.30;99.90;;;26.60;50.22;99905.47;4966270;28;20667;-67
2023/08/30 09:09:57;;;;;;;1.93;1.83;;;26.20;99.90;;;26.75;49.87;99903.16;4966683;28;20647;-68
2023/08/30 09:12:24;;;;;;;2.50;2.30;;;26.40;99.90;;;26.68;50.62;99908.59;4998213;28;20643;-69
2023/08/30 09:14:56;;;;;;;2.00;1.90;;;26.40;99.90;;;26.55;50.46;99903.47;4963315;28;20651;-68
2023/08/30 09:17:24;;;;;;;2.13;2.07;;;26.20;99.90;;;26.05;51.53;99900.31;4961623;28;20713;-66
2023/08/30 09:19:51;;;;;;;2.43;2.33;;;25.70;99.90;;;25.72;51.76;99902.63;4939538;28;20640;-68
2023/08/30 09:22:18;;;;;;;2.50;2.10;;;25.40;99.90;;;25.40;52.74;99899.31;4963377;28;20659;-66
2023/08/30 09:24:45;;;;;;;2.53;2.33;;;25.00;99.90;;;24.84;55.12;99893.34;4965080;28;20639;-68
2023/08/30 09:27:12;;;;;;;2.80;2.60;;;24.60;99.90;;;24.47;55.93;99900.41;4964613;28;20634;-68
2023/08/30 09:29:39;;;;;;;2.03;1.93;;;24.20;99.90;;;24.18;57.58;99894.88;4960713;28;20715;-68
2023/08/30 09:32:08;;;;;;;3.23;2.73;;;23.90;99.90;;;23.99;58.10;99885.97;4965735;28;20757;-70
2023/08/30 09:34:35;;;;;;;3.57;2.50;;;23.60;99.90;;;23.91;58.56;99880.91;4967133;28;20697;-68
2023/08/30 09:37:02;;;;;;;2.80;2.60;;;23.50;99.90;;;23.64;58.54;99876.72;4966806;28;20655;-68
2023/08/30 09:39:33;;;;;;;2.40;2.30;;;23.30;99.90;;;23.63;59.67;99881.25;4966425;28;20873;-67
2023/08/30 09:42:00;;;;;;;2.80;2.60;;;23.20;99.90;;;23.87;59.77;99869.03;4956961;28;20761;-69
2023/08/30 09:44:30;;;;;;;2.30;2.20;;;23.40;99.90;;;24.08;58.60;99871.38;4967180;28;21248;-68
2023/08/30 09:46:57;;;;;;;1.23;1.07;;;23.60;99.90;;;24.11;58.63;99857.63;4971629;28;20722;-68
2023/08/30 09:49:26;;;;;;;2.47;2.27;;;23.70;99.90;;;23.80;59.11;99868.25;5037555;28;20639;-68
2023/08/30 09:51:54;;;;;;;2.30;2.10;;;23.40;99.90;;;23.63;59.79;99861.78;4979304;28;20661;-70
2023/08/30 09:54:24;;;;;;;1.87;1.77;;;23.20;99.90;;;23.49;59.00;99857.56;4965449;28;20635;-67
2023/08/30 09:56:57;;;;;;;1.73;1.63;;;23.20;99.90;;;23.34;59.78;99857.81;5043989;28;20783;-66
2023/08/30 09:59:24;;;;;;;2.07;1.97;;;23.00;99.90;;;23.44;59.95;99852.88;4967601;28;20650;-68
2023/08/30 10:01:53;;;;;;;2.47;2.37;;;23.00;99.90;;;23.47;60.29;99857.75;4963383;28;20703;-67
2023/08/30 10:04:21;;;;;;;2.10;2.00;;;23.10;99.90;;;23.59;58.77;99855.25;4966548;28;20638;-68
2023/08/30 10:06:49;;;;;;;1.73;1.60;;;23.10;99.90;;;23.55;59.87;99848.72;4964891;28;20651;-67
2023/08/30 10:09:19;;;;;;;1.80;1.70;;;23.10;99.90;;;23.66;59.83;99842.72;4957111;28;21219;-68
2023/08/30 10:11:47;;;;;;;2.30;2.10;;;23.30;99.90;;;23.85;59.64;99845.25;4965106;28;20754;-67
2023/08/30 10:14:14;;;;;;;2.10;1.90;;;23.50;99.90;;;24.21;58.60;99841.16;4965058;28;20658;-66
2023/08/30 10:16:47;;;;;;;1.67;1.40;;;23.90;99.90;;;24.54;55.91;99829.16;4966370;28;21618;-68
2023/08/30 10:19:25;;;;;;;3.33;1.60;;;24.40;99.90;;;25.08;54.46;99831.09;4964803;28;21090;-67
2023/08/30 10:22:17;;;;;;;3.57;1.90;;;24.90;99.90;;;25.31;53.76;99830.41;4961913;28;20691;-65
2023/08/30 10:24:56;;;;;;;2.27;2.10;;;25.00;99.90;;;25.30;53.18;99842.09;4956871;28;21213;-65